sensor_id;sensor_type;location;lat;lon;timestamp;P1;durP1;ratioP1;P2;durP2;ratioP2
13335;SDS011;6737;51.480;11.962;2022-10-16T00:00:34;0.85;;;0.80;;
13335;SDS011;6737;51.480;11.962;2022-10-16T00:03:01;0.68;;;0.65;;
13335;SDS011;6737;51.480;11.962;2022-10-16T00:05:28;0.60;;;0.60;;
13335;SDS011;6737;51.480;11.962;2022-10-16T00:07:54;0.98;;;0.90;;
13335;SDS011;6737;51.480;11.962;2022-10-16T00:10:20;0.90;;;0.73;;
13335;SDS011;6737;51.480;11.962;2022-10-16T00:12:46;2.78;;;0.85;;
13335;SDS011;6737;51.480;11.962;2022-10-16T00:15:12;0.82;;;0.80;;
13335;SDS011;6737;51.480;11.962;2022-10-16T00:17:38;0.80;;;0.68;;
13335;SDS011;6737;51.480;11.962;2022-10-16T00:20:04;0.90;;;0.70;;
13335;SDS011;6737;51.480;11.962;2022-10-16T00:22:30;0.77;;;0.73;;
13335;SDS011;6737;51.480;11.962;2022-10-16T00:24:56;1.00;;;0.90;;
13335;SDS011;6737;51.480;11.962;2022-10-16T00:27:22;2.65;;;1.00;;
13335;SDS011;6737;51.480;11.962;2022-10-16T00:29:51;0.90;;;0.70;;
13335;SDS011;6737;51.480;11.962;2022-10-16T00:32:20;1.10;;;0.80;;
13335;SDS011;6737;51.480;11.962;2022-10-16T00:34:46;0.70;;;0.70;;
13335;SDS011;6737;51.480;11.962;2022-10-16T00:37:12;0.80;;;0.80;;
13335;SDS011;6737;51.480;11.962;2022-10-16T00:39:38;1.25;;;0.70;;
13335;SDS011;6737;51.480;11.962;2022-10-16T00:42:04;0.82;;;0.80;;
13335;SDS011;6737;51.480;11.962;2022-10-16T00:44:46;3.25;;;0.90;;
13335;SDS011;6737;51.480;11.962;2022-10-16T00:47:19;2.90;;;1.02;;
13335;SDS011;6737;51.480;11.962;2022-10-16T00:49:53;4.28;;;0.80;;
13335;SDS011;6737;51.480;11.962;2022-10-16T00:52:42;4.75;;;1.00;;
13335;SDS011;6737;51.480;11.962;2022-10-16T00:55:11;1.35;;;0.90;;
13335;SDS011;6737;51.480;11.962;2022-10-16T00:57:37;1.13;;;0.70;;
13335;SDS011;6737;51.480;11.962;2022-10-16T01:00:06;0.70;;;0.70;;
13335;SDS011;6737;51.480;11.962;2022-10-16T01:02:33;0.85;;;0.70;;
13335;SDS011;6737;51.480;11.962;2022-10-16T01:04:59;4.35;;;0.80;;
13335;SDS011;6737;51.480;11.962;2022-10-16T01:15:42;0.80;;;0.80;;
13335;SDS011;6737;51.480;11.962;2022-10-16T01:18:07;0.85;;;0.77;;
13335;SDS011;6737;51.480;11.962;2022-10-16T01:20:39;0.80;;;0.80;;
13335;SDS011;6737;51.480;11.962;2022-10-16T01:26:14;0.90;;;0.80;;
13335;SDS011;6737;51.480;11.962;2022-10-16T01:31:38;1.15;;;1.00;;
13335;SDS011;6737;51.480;11.962;2022-10-16T01:34:08;1.10;;;0.90;;
13335;SDS011;6737;51.480;11.962;2022-10-16T01:36:45;0.85;;;0.82;;
13335;SDS011;6737;51.480;11.962;2022-10-16T01:39:22;0.88;;;0.88;;
13335;SDS011;6737;51.480;11.962;2022-10-16T01:45:03;3.53;;;1.00;;
13335;SDS011;6737;51.480;11.962;2022-10-16T01:47:32;1.10;;;0.95;;
13335;SDS011;6737;51.480;11.962;2022-10-16T01:50:02;0.82;;;0.82;;
13335;SDS011;6737;51.480;11.962;2022-10-16T01:52:30;0.75;;;0.73;;
13335;SDS011;6737;51.480;11.962;2022-10-16T01:55:00;3.53;;;0.70;;
13335;SDS011;6737;51.480;11.962;2022-10-16T01:57:30;1.80;;;0.80;;
13335;SDS011;6737;51.480;11.962;2022-10-16T01:59:58;1.02;;;0.80;;
13335;SDS011;6737;51.480;11.962;2022-10-16T02:02:32;0.70;;;0.70;;
13335;SDS011;6737;51.480;11.962;2022-10-16T02:05:04;0.80;;;0.80;;
13335;SDS011;6737;51.480;11.962;2022-10-16T02:07:41;1.90;;;0.90;;
13335;SDS011;6737;51.480;11.962;2022-10-16T02:10:07;2.28;;;1.00;;
13335;SDS011;6737;51.480;11.962;2022-10-16T02:12:34;1.90;;;1.10;;
13335;SDS011;6737;51.480;11.962;2022-10-16T02:15:05;1.73;;;0.80;;
13335;SDS011;6737;51.480;11.962;2022-10-16T02:17:31;1.17;;;0.80;;
13335;SDS011;6737;51.480;11.962;2022-10-16T02:19:57;1.00;;;0.80;;
13335;SDS011;6737;51.480;11.962;2022-10-16T02:22:29;0.77;;;0.70;;
13335;SDS011;6737;51.480;11.962;2022-10-16T02:25:03;0.70;;;0.70;;
13335;SDS011;6737;51.480;11.962;2022-10-16T02:27:33;0.75;;;0.70;;
13335;SDS011;6737;51.480;11.962;2022-10-16T02:30:24;1.83;;;0.88;;
13335;SDS011;6737;51.480;11.962;2022-10-16T02:32:54;2.45;;;0.73;;
13335;SDS011;6737;51.480;11.962;2022-10-16T02:35:23;2.03;;;0.70;;
13335;SDS011;6737;51.480;11.962;2022-10-16T02:37:50;0.70;;;0.70;;
13335;SDS011;6737;51.480;11.962;2022-10-16T02:40:17;0.70;;;0.70;;
13335;SDS011;6737;51.480;11.962;2022-10-16T02:42:43;1.10;;;0.80;;
13335;SDS011;6737;51.480;11.962;2022-10-16T02:45:09;0.60;;;0.60;;
13335;SDS011;6737;51.480;11.962;2022-10-16T02:47:36;0.88;;;0.75;;
13335;SDS011;6737;51.480;11.962;2022-10-16T02:50:02;1.35;;;0.80;;
13335;SDS011;6737;51.480;11.962;2022-10-16T02:52:28;1.15;;;0.80;;
13335;SDS011;6737;51.480;11.962;2022-10-16T02:54:53;2.80;;;0.70;;
13335;SDS011;6737;51.480;11.962;2022-10-16T02:57:19;0.68;;;0.60;;
13335;SDS011;6737;51.480;11.962;2022-10-16T02:59:45;1.43;;;0.80;;
13335;SDS011;6737;51.480;11.962;2022-10-16T03:02:11;0.80;;;0.70;;
13335;SDS011;6737;51.480;11.962;2022-10-16T03:04:37;2.47;;;0.70;;
13335;SDS011;6737;51.480;11.962;2022-10-16T03:07:03;0.63;;;0.63;;
13335;SDS011;6737;51.480;11.962;2022-10-16T03:09:29;2.58;;;0.70;;
13335;SDS011;6737;51.480;11.962;2022-10-16T03:11:55;0.70;;;0.70;;
13335;SDS011;6737;51.480;11.962;2022-10-16T03:14:20;0.80;;;0.70;;
13335;SDS011;6737;51.480;11.962;2022-10-16T03:16:46;0.70;;;0.70;;
13335;SDS011;6737;51.480;11.962;2022-10-16T03:19:12;0.80;;;0.80;;
13335;SDS011;6737;51.480;11.962;2022-10-16T03:21:38;0.80;;;0.70;;
13335;SDS011;6737;51.480;11.962;2022-10-16T03:24:04;0.80;;;0.80;;
13335;SDS011;6737;51.480;11.962;2022-10-16T03:26:30;0.93;;;0.80;;
13335;SDS011;6737;51.480;11.962;2022-10-16T03:28:55;1.03;;;0.83;;
13335;SDS011;6737;51.480;11.962;2022-10-16T03:31:21;1.52;;;0.80;;
13335;SDS011;6737;51.480;11.962;2022-10-16T03:33:47;1.07;;;0.70;;
13335;SDS011;6737;51.480;11.962;2022-10-16T03:36:13;1.00;;;0.73;;
13335;SDS011;6737;51.480;11.962;2022-10-16T03:38:38;0.70;;;0.70;;
13335;SDS011;6737;51.480;11.962;2022-10-16T03:41:04;0.80;;;0.80;;
13335;SDS011;6737;51.480;11.962;2022-10-16T03:43:32;0.70;;;0.70;;
13335;SDS011;6737;51.480;11.962;2022-10-16T03:45:59;0.75;;;0.75;;
13335;SDS011;6737;51.480;11.962;2022-10-16T03:48:25;1.02;;;0.75;;
13335;SDS011;6737;51.480;11.962;2022-10-16T03:50:50;1.00;;;0.90;;
13335;SDS011;6737;51.480;11.962;2022-10-16T03:53:16;1.42;;;0.80;;
13335;SDS011;6737;51.480;11.962;2022-10-16T03:55:42;0.70;;;0.70;;
13335;SDS011;6737;51.480;11.962;2022-10-16T03:58:08;0.93;;;0.82;;
13335;SDS011;6737;51.480;11.962;2022-10-16T04:00:34;1.87;;;0.87;;
13335;SDS011;6737;51.480;11.962;2022-10-16T04:03:00;0.90;;;0.80;;
13335;SDS011;6737;51.480;11.962;2022-10-16T04:05:26;1.85;;;0.90;;
13335;SDS011;6737;51.480;11.962;2022-10-16T04:07:52;0.77;;;0.70;;
13335;SDS011;6737;51.480;11.962;2022-10-16T04:10:18;1.90;;;0.90;;
13335;SDS011;6737;51.480;11.962;2022-10-16T04:12:44;2.58;;;0.90;;
13335;SDS011;6737;51.480;11.962;2022-10-16T04:15:10;0.80;;;0.80;;
13335;SDS011;6737;51.480;11.962;2022-10-16T04:17:36;1.13;;;0.80;;
13335;SDS011;6737;51.480;11.962;2022-10-16T04:20:02;1.70;;;0.80;;
13335;SDS011;6737;51.480;11.962;2022-10-16T04:22:28;0.77;;;0.77;;
13335;SDS011;6737;51.480;11.962;2022-10-16T04:24:54;1.97;;;1.03;;
13335;SDS011;6737;51.480;11.962;2022-10-16T04:27:20;0.90;;;0.80;;
13335;SDS011;6737;51.480;11.962;2022-10-16T04:29:46;2.10;;;0.83;;
13335;SDS011;6737;51.480;11.962;2022-10-16T04:32:11;1.10;;;0.70;;
13335;SDS011;6737;51.480;11.962;2022-10-16T04:34:38;1.25;;;0.70;;
13335;SDS011;6737;51.480;11.962;2022-10-16T04:37:05;1.75;;;0.90;;
13335;SDS011;6737;51.480;11.962;2022-10-16T04:39:31;1.13;;;0.80;;
13335;SDS011;6737;51.480;11.962;2022-10-16T04:41:57;3.17;;;0.80;;
13335;SDS011;6737;51.480;11.962;2022-10-16T04:44:22;1.20;;;0.90;;
13335;SDS011;6737;51.480;11.962;2022-10-16T04:46:50;1.00;;;0.80;;
13335;SDS011;6737;51.480;11.962;2022-10-16T04:49:16;0.80;;;0.80;;
13335;SDS011;6737;51.480;11.962;2022-10-16T04:51:41;0.70;;;0.70;;
13335;SDS011;6737;51.480;11.962;2022-10-16T04:54:08;1.90;;;0.90;;
13335;SDS011;6737;51.480;11.962;2022-10-16T04:56:34;0.80;;;0.80;;
13335;SDS011;6737;51.480;11.962;2022-10-16T04:59:08;0.73;;;0.70;;
13335;SDS011;6737;51.480;11.962;2022-10-16T05:01:34;0.73;;;0.70;;
13335;SDS011;6737;51.480;11.962;2022-10-16T05:04:00;0.70;;;0.70;;
13335;SDS011;6737;51.480;11.962;2022-10-16T05:06:26;0.70;;;0.70;;
13335;SDS011;6737;51.480;11.962;2022-10-16T05:08:52;0.93;;;0.80;;
13335;SDS011;6737;51.480;11.962;2022-10-16T05:11:18;1.07;;;0.90;;
13335;SDS011;6737;51.480;11.962;2022-10-16T05:13:43;1.07;;;0.70;;
13335;SDS011;6737;51.480;11.962;2022-10-16T05:16:09;0.80;;;0.80;;
13335;SDS011;6737;51.480;11.962;2022-10-16T05:18:35;1.03;;;0.70;;
13335;SDS011;6737;51.480;11.962;2022-10-16T05:21:01;0.70;;;0.70;;
13335;SDS011;6737;51.480;11.962;2022-10-16T05:23:26;1.33;;;0.63;;
13335;SDS011;6737;51.480;11.962;2022-10-16T05:25:53;0.70;;;0.70;;
13335;SDS011;6737;51.480;11.962;2022-10-16T05:28:20;3.50;;;0.70;;
13335;SDS011;6737;51.480;11.962;2022-10-16T05:30:46;0.80;;;0.80;;
13335;SDS011;6737;51.480;11.962;2022-10-16T05:33:12;0.80;;;0.80;;
13335;SDS011;6737;51.480;11.962;2022-10-16T05:35:38;0.93;;;0.80;;
13335;SDS011;6737;51.480;11.962;2022-10-16T05:38:04;1.40;;;0.80;;
13335;SDS011;6737;51.480;11.962;2022-10-16T05:40:30;0.80;;;0.80;;
13335;SDS011;6737;51.480;11.962;2022-10-16T05:42:55;2.77;;;0.70;;
13335;SDS011;6737;51.480;11.962;2022-10-16T05:45:21;2.17;;;1.00;;
13335;SDS011;6737;51.480;11.962;2022-10-16T05:47:47;0.77;;;0.70;;
13335;SDS011;6737;51.480;11.962;2022-10-16T05:50:13;0.88;;;0.70;;
13335;SDS011;6737;51.480;11.962;2022-10-16T05:52:39;3.25;;;0.85;;
13335;SDS011;6737;51.480;11.962;2022-10-16T05:55:05;1.13;;;0.80;;
13335;SDS011;6737;51.480;11.962;2022-10-16T05:57:31;1.33;;;0.90;;
13335;SDS011;6737;51.480;11.962;2022-10-16T05:59:56;0.80;;;0.80;;
13335;SDS011;6737;51.480;11.962;2022-10-16T06:02:22;1.30;;;0.87;;
13335;SDS011;6737;51.480;11.962;2022-10-16T06:04:48;0.90;;;0.70;;
13335;SDS011;6737;51.480;11.962;2022-10-16T06:07:14;0.70;;;0.70;;
13335;SDS011;6737;51.480;11.962;2022-10-16T06:09:39;1.03;;;0.90;;
13335;SDS011;6737;51.480;11.962;2022-10-16T06:12:05;0.70;;;0.70;;
13335;SDS011;6737;51.480;11.962;2022-10-16T06:14:31;1.30;;;0.90;;
13335;SDS011;6737;51.480;11.962;2022-10-16T06:16:57;1.33;;;0.90;;
13335;SDS011;6737;51.480;11.962;2022-10-16T06:19:22;1.17;;;0.90;;
13335;SDS011;6737;51.480;11.962;2022-10-16T06:21:48;1.67;;;0.80;;
13335;SDS011;6737;51.480;11.962;2022-10-16T06:24:14;0.80;;;0.80;;
13335;SDS011;6737;51.480;11.962;2022-10-16T06:26:40;0.95;;;0.90;;
13335;SDS011;6737;51.480;11.962;2022-10-16T06:29:05;0.73;;;0.73;;
13335;SDS011;6737;51.480;11.962;2022-10-16T06:31:31;2.15;;;0.80;;
13335;SDS011;6737;51.480;11.962;2022-10-16T06:33:58;0.93;;;0.80;;
13335;SDS011;6737;51.480;11.962;2022-10-16T06:36:24;0.97;;;0.90;;
13335;SDS011;6737;51.480;11.962;2022-10-16T06:38:51;2.33;;;1.00;;
13335;SDS011;6737;51.480;11.962;2022-10-16T06:41:18;0.70;;;0.70;;
13335;SDS011;6737;51.480;11.962;2022-10-16T06:43:46;0.80;;;0.80;;
13335;SDS011;6737;51.480;11.962;2022-10-16T06:46:14;0.80;;;0.80;;
13335;SDS011;6737;51.480;11.962;2022-10-16T06:48:42;1.45;;;0.90;;
13335;SDS011;6737;51.480;11.962;2022-10-16T06:51:09;0.90;;;0.88;;
13335;SDS011;6737;51.480;11.962;2022-10-16T06:53:37;1.70;;;0.93;;
13335;SDS011;6737;51.480;11.962;2022-10-16T06:56:09;2.05;;;1.00;;
13335;SDS011;6737;51.480;11.962;2022-10-16T06:58:36;1.60;;;1.23;;
13335;SDS011;6737;51.480;11.962;2022-10-16T07:01:03;1.30;;;1.20;;
13335;SDS011;6737;51.480;11.962;2022-10-16T07:03:29;2.80;;;1.20;;
13335;SDS011;6737;51.480;11.962;2022-10-16T07:05:55;1.30;;;1.17;;
13335;SDS011;6737;51.480;11.962;2022-10-16T07:08:21;2.08;;;1.00;;
13335;SDS011;6737;51.480;11.962;2022-10-16T07:10:47;2.70;;;1.10;;
13335;SDS011;6737;51.480;11.962;2022-10-16T07:13:13;1.40;;;1.10;;
13335;SDS011;6737;51.480;11.962;2022-10-16T07:15:39;2.35;;;1.20;;
13335;SDS011;6737;51.480;11.962;2022-10-16T07:18:06;1.10;;;1.00;;
13335;SDS011;6737;51.480;11.962;2022-10-16T07:20:32;1.67;;;1.10;;
13335;SDS011;6737;51.480;11.962;2022-10-16T07:22:58;2.13;;;1.10;;
13335;SDS011;6737;51.480;11.962;2022-10-16T07:25:23;2.03;;;1.10;;
13335;SDS011;6737;51.480;11.962;2022-10-16T07:27:50;1.00;;;0.90;;
13335;SDS011;6737;51.480;11.962;2022-10-16T07:30:15;1.15;;;1.00;;
13335;SDS011;6737;51.480;11.962;2022-10-16T07:32:41;2.13;;;1.20;;
13335;SDS011;6737;51.480;11.962;2022-10-16T07:35:07;2.25;;;1.20;;
13335;SDS011;6737;51.480;11.962;2022-10-16T07:37:33;1.48;;;1.30;;
13335;SDS011;6737;51.480;11.962;2022-10-16T07:39:58;2.42;;;1.95;;
13335;SDS011;6737;51.480;11.962;2022-10-16T07:42:24;2.20;;;2.00;;
13335;SDS011;6737;51.480;11.962;2022-10-16T07:44:50;2.00;;;1.70;;
13335;SDS011;6737;51.480;11.962;2022-10-16T07:47:16;1.52;;;1.42;;
13335;SDS011;6737;51.480;11.962;2022-10-16T07:49:41;3.05;;;1.30;;
13335;SDS011;6737;51.480;11.962;2022-10-16T07:52:07;1.38;;;1.23;;
13335;SDS011;6737;51.480;11.962;2022-10-16T07:54:33;1.77;;;1.33;;
13335;SDS011;6737;51.480;11.962;2022-10-16T07:56:59;1.65;;;1.20;;
13335;SDS011;6737;51.480;11.962;2022-10-16T07:59:24;1.20;;;1.02;;
13335;SDS011;6737;51.480;11.962;2022-10-16T08:01:50;1.02;;;0.90;;
13335;SDS011;6737;51.480;11.962;2022-10-16T08:04:16;1.20;;;0.90;;
13335;SDS011;6737;51.480;11.962;2022-10-16T08:06:42;2.35;;;0.98;;
13335;SDS011;6737;51.480;11.962;2022-10-16T08:09:08;1.10;;;1.00;;
13335;SDS011;6737;51.480;11.962;2022-10-16T08:11:34;2.63;;;0.85;;
13335;SDS011;6737;51.480;11.962;2022-10-16T08:14:00;1.00;;;0.90;;
13335;SDS011;6737;51.480;11.962;2022-10-16T08:16:26;1.23;;;1.10;;
13335;SDS011;6737;51.480;11.962;2022-10-16T08:18:52;0.95;;;0.90;;
13335;SDS011;6737;51.480;11.962;2022-10-16T08:21:19;1.10;;;0.90;;
13335;SDS011;6737;51.480;11.962;2022-10-16T08:23:50;0.90;;;0.90;;
13335;SDS011;6737;51.480;11.962;2022-10-16T08:26:18;1.00;;;0.90;;
13335;SDS011;6737;51.480;11.962;2022-10-16T08:28:44;1.00;;;0.90;;
13335;SDS011;6737;51.480;11.962;2022-10-16T08:33:40;0.80;;;0.80;;
13335;SDS011;6737;51.480;11.962;2022-10-16T08:36:09;0.95;;;0.90;;
13335;SDS011;6737;51.480;11.962;2022-10-16T08:38:36;0.80;;;0.80;;
13335;SDS011;6737;51.480;11.962;2022-10-16T08:46:46;1.10;;;1.00;;
13335;SDS011;6737;51.480;11.962;2022-10-16T08:49:18;1.45;;;0.82;;
13335;SDS011;6737;51.480;11.962;2022-10-16T08:51:44;1.30;;;1.00;;
13335;SDS011;6737;51.480;11.962;2022-10-16T08:57:15;1.25;;;0.90;;
13335;SDS011;6737;51.480;11.962;2022-10-16T08:59:46;0.90;;;0.90;;
13335;SDS011;6737;51.480;11.962;2022-10-16T09:02:35;0.80;;;0.70;;
13335;SDS011;6737;51.480;11.962;2022-10-16T09:05:26;1.13;;;0.90;;
13335;SDS011;6737;51.480;11.962;2022-10-16T09:14:18;1.58;;;0.60;;
13335;SDS011;6737;51.480;11.962;2022-10-16T09:20:12;0.70;;;0.70;;
13335;SDS011;6737;51.480;11.962;2022-10-16T09:22:53;0.70;;;0.70;;
13335;SDS011;6737;51.480;11.962;2022-10-16T09:25:33;0.77;;;0.75;;
13335;SDS011;6737;51.480;11.962;2022-10-16T09:27:59;0.85;;;0.73;;
13335;SDS011;6737;51.480;11.962;2022-10-16T09:30:26;0.93;;;0.82;;
13335;SDS011;6737;51.480;11.962;2022-10-16T09:32:55;0.70;;;0.70;;
13335;SDS011;6737;51.480;11.962;2022-10-16T09:35:36;0.60;;;0.60;;
13335;SDS011;6737;51.480;11.962;2022-10-16T09:38:05;0.73;;;0.70;;
13335;SDS011;6737;51.480;11.962;2022-10-16T09:40:33;0.60;;;0.60;;
13335;SDS011;6737;51.480;11.962;2022-10-16T09:45:59;0.57;;;0.57;;
13335;SDS011;6737;51.480;11.962;2022-10-16T09:48:26;0.60;;;0.60;;
13335;SDS011;6737;51.480;11.962;2022-10-16T09:51:00;0.60;;;0.60;;
13335;SDS011;6737;51.480;11.962;2022-10-16T09:53:45;0.57;;;0.57;;
13335;SDS011;6737;51.480;11.962;2022-10-16T09:56:20;0.60;;;0.60;;
13335;SDS011;6737;51.480;11.962;2022-10-16T09:58:55;0.50;;;0.50;;
13335;SDS011;6737;51.480;11.962;2022-10-16T10:01:24;0.60;;;0.60;;
13335;SDS011;6737;51.480;11.962;2022-10-16T10:03:57;0.65;;;0.60;;
13335;SDS011;6737;51.480;11.962;2022-10-16T10:06:35;0.60;;;0.60;;
13335;SDS011;6737;51.480;11.962;2022-10-16T10:09:19;0.73;;;0.60;;
13335;SDS011;6737;51.480;11.962;2022-10-16T10:11:56;0.80;;;0.80;;
13335;SDS011;6737;51.480;11.962;2022-10-16T10:17:06;0.60;;;0.60;;
13335;SDS011;6737;51.480;11.962;2022-10-16T10:19:58;0.50;;;0.50;;
13335;SDS011;6737;51.480;11.962;2022-10-16T10:22:27;0.50;;;0.50;;
13335;SDS011;6737;51.480;11.962;2022-10-16T10:24:55;0.60;;;0.60;;
13335;SDS011;6737;51.480;11.962;2022-10-16T10:27:24;0.63;;;0.63;;
13335;SDS011;6737;51.480;11.962;2022-10-16T10:30:01;1.13;;;0.70;;
13335;SDS011;6737;51.480;11.962;2022-10-16T10:32:49;0.50;;;0.50;;
13335;SDS011;6737;51.480;11.962;2022-10-16T10:36:03;1.15;;;0.60;;
13335;SDS011;6737;51.480;11.962;2022-10-16T10:38:17;0.57;;;0.57;;
13335;SDS011;6737;51.480;11.962;2022-10-16T10:40:56;0.55;;;0.55;;
13335;SDS011;6737;51.480;11.962;2022-10-16T10:44:47;0.77;;;0.68;;
13335;SDS011;6737;51.480;11.962;2022-10-16T10:47:27;0.70;;;0.70;;
13335;SDS011;6737;51.480;11.962;2022-10-16T10:55:37;2.35;;;0.70;;
13335;SDS011;6737;51.480;11.962;2022-10-16T11:01:14;1.10;;;0.68;;
13335;SDS011;6737;51.480;11.962;2022-10-16T11:06:57;0.60;;;0.60;;
13335;SDS011;6737;51.480;11.962;2022-10-16T11:09:32;0.50;;;0.50;;
13335;SDS011;6737;51.480;11.962;2022-10-16T11:14:48;0.70;;;0.70;;
13335;SDS011;6737;51.480;11.962;2022-10-16T11:22:38;1.38;;;0.70;;
13335;SDS011;6737;51.480;11.962;2022-10-16T11:25:22;0.70;;;0.70;;
13335;SDS011;6737;51.480;11.962;2022-10-16T11:27:57;0.70;;;0.70;;
13335;SDS011;6737;51.480;11.962;2022-10-16T11:30:31;0.70;;;0.70;;
13335;SDS011;6737;51.480;11.962;2022-10-16T11:41:02;0.80;;;0.80;;
13335;SDS011;6737;51.480;11.962;2022-10-16T11:47:01;0.73;;;0.70;;
13335;SDS011;6737;51.480;11.962;2022-10-16T11:49:27;0.80;;;0.70;;
13335;SDS011;6737;51.480;11.962;2022-10-16T11:57:20;0.98;;;0.70;;
13335;SDS011;6737;51.480;11.962;2022-10-16T11:59:52;0.98;;;0.70;;
13335;SDS011;6737;51.480;11.962;2022-10-16T12:02:34;0.80;;;0.70;;
13335;SDS011;6737;51.480;11.962;2022-10-16T12:10:27;0.70;;;0.70;;
13335;SDS011;6737;51.480;11.962;2022-10-16T12:12:56;0.68;;;0.60;;
13335;SDS011;6737;51.480;11.962;2022-10-16T12:15:27;0.70;;;0.70;;
13335;SDS011;6737;51.480;11.962;2022-10-16T12:17:55;0.80;;;0.70;;
13335;SDS011;6737;51.480;11.962;2022-10-16T12:22:54;0.70;;;0.70;;
13335;SDS011;6737;51.480;11.962;2022-10-16T12:25:27;0.98;;;0.70;;
13335;SDS011;6737;51.480;11.962;2022-10-16T12:28:18;1.75;;;0.68;;
13335;SDS011;6737;51.480;11.962;2022-10-16T12:30:56;0.70;;;0.70;;
13335;SDS011;6737;51.480;11.962;2022-10-16T12:33:27;0.60;;;0.60;;
13335;SDS011;6737;51.480;11.962;2022-10-16T12:35:55;0.70;;;0.70;;
13335;SDS011;6737;51.480;11.962;2022-10-16T12:38:28;0.65;;;0.65;;
13335;SDS011;6737;51.480;11.962;2022-10-16T12:41:34;0.73;;;0.60;;
13335;SDS011;6737;51.480;11.962;2022-10-16T12:44:05;1.48;;;1.13;;
13335;SDS011;6737;51.480;11.962;2022-10-16T12:46:51;0.60;;;0.60;;
13335;SDS011;6737;51.480;11.962;2022-10-16T12:49:21;1.13;;;0.68;;
13335;SDS011;6737;51.480;11.962;2022-10-16T12:52:02;4.70;;;3.08;;
13335;SDS011;6737;51.480;11.962;2022-10-16T12:54:30;5.47;;;3.17;;
13335;SDS011;6737;51.480;11.962;2022-10-16T13:05:21;1.73;;;0.85;;
13335;SDS011;6737;51.480;11.962;2022-10-16T13:07:59;1.25;;;1.00;;
13335;SDS011;6737;51.480;11.962;2022-10-16T13:18:18;1.52;;;0.60;;
13335;SDS011;6737;51.480;11.962;2022-10-16T13:29:06;1.67;;;0.85;;
13335;SDS011;6737;51.480;11.962;2022-10-16T13:31:32;1.80;;;0.82;;
13335;SDS011;6737;51.480;11.962;2022-10-16T13:33:59;1.13;;;0.80;;
13335;SDS011;6737;51.480;11.962;2022-10-16T13:36:26;1.10;;;0.70;;
13335;SDS011;6737;51.480;11.962;2022-10-16T13:39:28;2.22;;;0.80;;
13335;SDS011;6737;51.480;11.962;2022-10-16T13:42:02;0.70;;;0.70;;
13335;SDS011;6737;51.480;11.962;2022-10-16T13:44:36;0.85;;;0.70;;
13335;SDS011;6737;51.480;11.962;2022-10-16T13:47:15;0.60;;;0.60;;
13335;SDS011;6737;51.480;11.962;2022-10-16T13:49:43;0.90;;;0.70;;
13335;SDS011;6737;51.480;11.962;2022-10-16T13:52:17;0.70;;;0.70;;
13335;SDS011;6737;51.480;11.962;2022-10-16T13:54:45;0.95;;;0.70;;
13335;SDS011;6737;51.480;11.962;2022-10-16T13:57:14;1.00;;;0.68;;
13335;SDS011;6737;51.480;11.962;2022-10-16T13:59:41;0.70;;;0.70;;
13335;SDS011;6737;51.480;11.962;2022-10-16T14:04:54;3.65;;;0.80;;
13335;SDS011;6737;51.480;11.962;2022-10-16T14:07:23;2.05;;;0.90;;
13335;SDS011;6737;51.480;11.962;2022-10-16T14:09:52;1.10;;;0.77;;
13335;SDS011;6737;51.480;11.962;2022-10-16T14:12:18;0.60;;;0.60;;
13335;SDS011;6737;51.480;11.962;2022-10-16T14:14:46;2.75;;;0.75;;
13335;SDS011;6737;51.480;11.962;2022-10-16T14:17:19;0.90;;;0.75;;
13335;SDS011;6737;51.480;11.962;2022-10-16T14:19:46;2.78;;;0.70;;
13335;SDS011;6737;51.480;11.962;2022-10-16T14:22:23;0.70;;;0.70;;
13335;SDS011;6737;51.480;11.962;2022-10-16T14:25:24;0.63;;;0.60;;
13335;SDS011;6737;51.480;11.962;2022-10-16T14:28:00;1.85;;;0.80;;
13335;SDS011;6737;51.480;11.962;2022-10-16T14:30:48;0.70;;;0.70;;
13335;SDS011;6737;51.480;11.962;2022-10-16T14:33:20;1.23;;;0.70;;
13335;SDS011;6737;51.480;11.962;2022-10-16T14:38:33;0.60;;;0.60;;
13335;SDS011;6737;51.480;11.962;2022-10-16T14:41:00;0.63;;;0.63;;
13335;SDS011;6737;51.480;11.962;2022-10-16T14:43:29;1.85;;;0.80;;
13335;SDS011;6737;51.480;11.962;2022-10-16T14:46:17;0.85;;;0.70;;
13335;SDS011;6737;51.480;11.962;2022-10-16T14:48:49;2.13;;;0.80;;
13335;SDS011;6737;51.480;11.962;2022-10-16T14:51:18;2.80;;;0.75;;
13335;SDS011;6737;51.480;11.962;2022-10-16T14:53:44;0.70;;;0.70;;
13335;SDS011;6737;51.480;11.962;2022-10-16T14:56:21;0.73;;;0.70;;
13335;SDS011;6737;51.480;11.962;2022-10-16T14:58:49;0.75;;;0.70;;
13335;SDS011;6737;51.480;11.962;2022-10-16T15:01:16;0.70;;;0.70;;
13335;SDS011;6737;51.480;11.962;2022-10-16T15:03:43;0.70;;;0.68;;
13335;SDS011;6737;51.480;11.962;2022-10-16T15:06:10;0.70;;;0.70;;
13335;SDS011;6737;51.480;11.962;2022-10-16T15:08:37;0.70;;;0.70;;
13335;SDS011;6737;51.480;11.962;2022-10-16T15:11:03;0.80;;;0.80;;
13335;SDS011;6737;51.480;11.962;2022-10-16T15:13:29;1.40;;;0.80;;
13335;SDS011;6737;51.480;11.962;2022-10-16T15:15:55;0.73;;;0.73;;
13335;SDS011;6737;51.480;11.962;2022-10-16T15:18:20;1.73;;;0.70;;
13335;SDS011;6737;51.480;11.962;2022-10-16T15:20:48;1.10;;;0.70;;
13335;SDS011;6737;51.480;11.962;2022-10-16T15:23:16;0.68;;;0.68;;
13335;SDS011;6737;51.480;11.962;2022-10-16T15:25:47;0.90;;;0.80;;
13335;SDS011;6737;51.480;11.962;2022-10-16T15:28:15;0.70;;;0.70;;
13335;SDS011;6737;51.480;11.962;2022-10-16T15:30:42;0.65;;;0.65;;
13335;SDS011;6737;51.480;11.962;2022-10-16T15:33:14;0.70;;;0.70;;
13335;SDS011;6737;51.480;11.962;2022-10-16T15:35:45;0.70;;;0.70;;
13335;SDS011;6737;51.480;11.962;2022-10-16T15:38:13;1.83;;;0.90;;
13335;SDS011;6737;51.480;11.962;2022-10-16T15:40:40;1.35;;;0.73;;
13335;SDS011;6737;51.480;11.962;2022-10-16T15:43:06;0.80;;;0.60;;
13335;SDS011;6737;51.480;11.962;2022-10-16T15:45:34;0.73;;;0.70;;
13335;SDS011;6737;51.480;11.962;2022-10-16T15:48:00;0.88;;;0.70;;
13335;SDS011;6737;51.480;11.962;2022-10-16T15:50:26;0.95;;;0.75;;
13335;SDS011;6737;51.480;11.962;2022-10-16T15:52:52;1.42;;;0.73;;
13335;SDS011;6737;51.480;11.962;2022-10-16T15:55:18;0.70;;;0.70;;
13335;SDS011;6737;51.480;11.962;2022-10-16T15:57:44;1.25;;;0.85;;
13335;SDS011;6737;51.480;11.962;2022-10-16T16:00:14;1.95;;;0.80;;
13335;SDS011;6737;51.480;11.962;2022-10-16T16:02:43;0.90;;;0.80;;
13335;SDS011;6737;51.480;11.962;2022-10-16T16:05:15;1.73;;;0.80;;
13335;SDS011;6737;51.480;11.962;2022-10-16T16:07:40;0.70;;;0.68;;
13335;SDS011;6737;51.480;11.962;2022-10-16T16:10:07;1.40;;;0.85;;
13335;SDS011;6737;51.480;11.962;2022-10-16T16:12:35;1.98;;;0.70;;
13335;SDS011;6737;51.480;11.962;2022-10-16T16:15:02;0.60;;;0.60;;
13335;SDS011;6737;51.480;11.962;2022-10-16T16:17:33;0.70;;;0.70;;
13335;SDS011;6737;51.480;11.962;2022-10-16T16:19:59;0.80;;;0.80;;
13335;SDS011;6737;51.480;11.962;2022-10-16T16:22:26;0.70;;;0.70;;
13335;SDS011;6737;51.480;11.962;2022-10-16T16:24:52;0.80;;;0.80;;
13335;SDS011;6737;51.480;11.962;2022-10-16T16:27:18;2.38;;;0.70;;
13335;SDS011;6737;51.480;11.962;2022-10-16T16:29:45;0.95;;;0.80;;
13335;SDS011;6737;51.480;11.962;2022-10-16T16:32:12;4.22;;;0.90;;
13335;SDS011;6737;51.480;11.962;2022-10-16T16:34:38;2.13;;;0.95;;
13335;SDS011;6737;51.480;11.962;2022-10-16T16:37:04;0.93;;;0.88;;
13335;SDS011;6737;51.480;11.962;2022-10-16T16:39:29;0.75;;;0.75;;
13335;SDS011;6737;51.480;11.962;2022-10-16T16:41:56;1.17;;;0.88;;
13335;SDS011;6737;51.480;11.962;2022-10-16T16:44:28;2.20;;;0.85;;
13335;SDS011;6737;51.480;11.962;2022-10-16T16:46:53;0.70;;;0.70;;
13335;SDS011;6737;51.480;11.962;2022-10-16T16:49:19;2.25;;;1.02;;
13335;SDS011;6737;51.480;11.962;2022-10-16T16:51:45;1.45;;;0.90;;
13335;SDS011;6737;51.480;11.962;2022-10-16T16:54:11;1.10;;;0.82;;
13335;SDS011;6737;51.480;11.962;2022-10-16T16:56:38;1.60;;;0.88;;
13335;SDS011;6737;51.480;11.962;2022-10-16T16:59:10;0.85;;;0.80;;